sensor_id;sensor_type;location;lat;lon;timestamp;pressure;altitude;pressure_sealevel;temperature;humidity
28665;BME280;15850;47.524;7.814;2023-01-19T00:02:08;96809.59;;;-2.02;100.00
28665;BME280;15850;47.524;7.814;2023-01-19T00:04:35;96756.38;;;-2.51;100.00
28665;BME280;15850;47.524;7.814;2023-01-19T00:07:00;96737.47;;;-2.55;100.00
28665;BME280;15850;47.524;7.814;2023-01-19T00:09:26;96778.09;;;-2.34;100.00
28665;BME280;15850;47.524;7.814;2023-01-19T00:11:51;96828.44;;;-1.93;100.00
28665;BME280;15850;47.524;7.814;2023-01-19T00:14:17;96817.91;;;-2.08;100.00
28665;BME280;15850;47.524;7.814;2023-01-19T00:16:42;96675.69;;;-3.01;100.00
28665;BME280;15850;47.524;7.814;2023-01-19T00:19:08;96824.81;;;-2.07;100.00
28665;BME280;15850;47.524;7.814;2023-01-19T00:21:34;96840.22;;;-1.99;100.00
28665;BME280;15850;47.524;7.814;2023-01-19T00:24:00;96784.63;;;-2.16;100.00
28665;BME280;15850;47.524;7.814;2023-01-19T00:26:25;96826.47;;;-1.72;100.00
28665;BME280;15850;47.524;7.814;2023-01-19T00:28:51;96824.03;;;-1.69;100.00
28665;BME280;15850;47.524;7.814;2023-01-19T00:31:16;96827.19;;;-1.67;100.00
28665;BME280;15850;47.524;7.814;2023-01-19T00:33:42;96508.13;;;-3.51;100.00
28665;BME280;15850;47.524;7.814;2023-01-19T00:36:08;96762.38;;;-1.96;100.00
28665;BME280;15850;47.524;7.814;2023-01-19T00:38:35;96721.59;;;-2.31;100.00
28665;BME280;15850;47.524;7.814;2023-01-19T00:41:01;96492.59;;;-3.73;100.00
28665;BME280;15850;47.524;7.814;2023-01-19T00:43:26;96775.84;;;-2.17;100.00
28665;BME280;15850;47.524;7.814;2023-01-19T00:45:52;96623.53;;;-3.02;100.00
28665;BME280;15850;47.524;7.814;2023-01-19T00:48:17;96839.72;;;-1.62;100.00
28665;BME280;15850;47.524;7.814;2023-01-19T00:50:43;96838.09;;;-1.63;100.00
28665;BME280;15850;47.524;7.814;2023-01-19T00:53:08;96837.97;;;-1.48;100.00
28665;BME280;15850;47.524;7.814;2023-01-19T00:55:35;96846.13;;;-1.34;100.00
28665;BME280;15850;47.524;7.814;2023-01-19T00:58:01;96842.38;;;-1.33;100.00
28665;BME280;15850;47.524;7.814;2023-01-19T01:00:26;96740.72;;;-1.90;100.00
28665;BME280;15850;47.524;7.814;2023-01-19T01:02:52;96793.97;;;-1.50;100.00
28665;BME280;15850;47.524;7.814;2023-01-19T01:05:19;96843.16;;;-1.03;100.00
28665;BME280;15850;47.524;7.814;2023-01-19T01:07:45;96680.03;;;-2.32;100.00
28665;BME280;15850;47.524;7.814;2023-01-19T01:10:13;96748.06;;;-1.76;100.00
28665;BME280;15850;47.524;7.814;2023-01-19T01:12:41;96820.28;;;-1.68;100.00
28665;BME280;15850;47.524;7.814;2023-01-19T01:15:09;96815.94;;;-1.58;100.00
28665;BME280;15850;47.524;7.814;2023-01-19T01:17:36;96826.00;;;-1.50;100.00
28665;BME280;15850;47.524;7.814;2023-01-19T01:20:02;96693.25;;;-2.56;100.00
28665;BME280;15850;47.524;7.814;2023-01-19T01:22:28;96849.41;;;-1.42;100.00
28665;BME280;15850;47.524;7.814;2023-01-19T01:24:53;96075.41;;;-6.48;100.00
28665;BME280;15850;47.524;7.814;2023-01-19T01:27:19;96852.28;;;-1.09;100.00
28665;BME280;15850;47.524;7.814;2023-01-19T01:29:45;96549.19;;;-3.28;100.00
28665;BME280;15850;47.524;7.814;2023-01-19T01:32:12;96860.47;;;-1.25;100.00
28665;BME280;15850;47.524;7.814;2023-01-19T01:34:37;96668.19;;;-2.50;100.00
28665;BME280;15850;47.524;7.814;2023-01-19T01:37:03;96763.91;;;-1.90;100.00
28665;BME280;15850;47.524;7.814;2023-01-19T01:39:28;96863.13;;;-1.25;100.00
28665;BME280;15850;47.524;7.814;2023-01-19T01:41:54;96865.00;;;-1.25;100.00
28665;BME280;15850;47.524;7.814;2023-01-19T01:44:41;96873.25;;;-1.22;100.00
28665;BME280;15850;47.524;7.814;2023-01-19T01:47:09;96657.59;;;-2.55;100.00
28665;BME280;15850;47.524;7.814;2023-01-19T01:49:35;96861.06;;;-1.33;100.00
28665;BME280;15850;47.524;7.814;2023-01-19T01:52:00;96867.00;;;-1.41;100.00
28665;BME280;15850;47.524;7.814;2023-01-19T01:54:28;96791.19;;;-1.98;100.00
28665;BME280;15850;47.524;7.814;2023-01-19T01:56:59;96771.94;;;-2.29;100.00
28665;BME280;15850;47.524;7.814;2023-01-19T01:59:28;96653.66;;;-3.12;100.00
28665;BME280;15850;47.524;7.814;2023-01-19T02:01:55;96792.69;;;-2.26;100.00
28665;BME280;15850;47.524;7.814;2023-01-19T02:04:22;96551.34;;;-3.80;100.00
28665;BME280;15850;47.524;7.814;2023-01-19T02:06:48;96861.94;;;-1.77;100.00
28665;BME280;15850;47.524;7.814;2023-01-19T02:09:14;96865.00;;;-1.59;100.00
28665;BME280;15850;47.524;7.814;2023-01-19T02:11:40;96772.59;;;-2.08;100.00
28665;BME280;15850;47.524;7.814;2023-01-19T02:14:06;96316.84;;;-5.05;100.00
28665;BME280;15850;47.524;7.814;2023-01-19T02:16:32;96870.66;;;-1.32;100.00
28665;BME280;15850;47.524;7.814;2023-01-19T02:18:58;96878.69;;;-1.37;100.00
28665;BME280;15850;47.524;7.814;2023-01-19T02:21:30;96858.06;;;-1.55;100.00
28665;BME280;15850;47.524;7.814;2023-01-19T02:24:00;96851.25;;;-1.72;100.00
28665;BME280;15850;47.524;7.814;2023-01-19T02:26:28;96812.03;;;-1.71;100.00
28665;BME280;15850;47.524;7.814;2023-01-19T02:28:57;96851.56;;;-1.44;100.00
28665;BME280;15850;47.524;7.814;2023-01-19T02:31:23;96877.78;;;-1.22;100.00
28665;BME280;15850;47.524;7.814;2023-01-19T02:33:50;96873.81;;;-1.25;100.00
28665;BME280;15850;47.524;7.814;2023-01-19T02:36:20;96874.63;;;-1.29;100.00
28665;BME280;15850;47.524;7.814;2023-01-19T02:38:48;96717.13;;;-2.41;100.00
28665;BME280;15850;47.524;7.814;2023-01-19T02:41:18;96845.84;;;-1.61;100.00
28665;BME280;15850;47.524;7.814;2023-01-19T02:43:47;96877.69;;;-1.41;100.00
28665;BME280;15850;47.524;7.814;2023-01-19T02:46:14;96788.28;;;-2.02;100.00
28665;BME280;15850;47.524;7.814;2023-01-19T02:48:40;96853.53;;;-1.60;100.00
28665;BME280;15850;47.524;7.814;2023-01-19T02:51:10;96879.88;;;-1.48;100.00
28665;BME280;15850;47.524;7.814;2023-01-19T02:54:04;96879.31;;;-1.45;100.00
28665;BME280;15850;47.524;7.814;2023-01-19T02:56:52;96882.06;;;-1.55;100.00
28665;BME280;15850;47.524;7.814;2023-01-19T02:59:27;96489.19;;;-3.89;100.00
28665;BME280;15850;47.524;7.814;2023-01-19T03:02:04;96885.91;;;-1.37;100.00
28665;BME280;15850;47.524;7.814;2023-01-19T03:04:40;96823.03;;;-1.83;100.00
28665;BME280;15850;47.524;7.814;2023-01-19T03:07:13;96884.72;;;-1.55;100.00
28665;BME280;15850;47.524;7.814;2023-01-19T03:09:46;96892.13;;;-1.47;100.00
28665;BME280;15850;47.524;7.814;2023-01-19T03:12:23;96466.78;;;-4.22;100.00
28665;BME280;15850;47.524;7.814;2023-01-19T03:14:52;96891.13;;;-1.56;100.00
28665;BME280;15850;47.524;7.814;2023-01-19T03:17:21;96870.00;;;-1.82;100.00
28665;BME280;15850;47.524;7.814;2023-01-19T03:19:48;96824.16;;;-2.28;100.00
28665;BME280;15850;47.524;7.814;2023-01-19T03:22:19;96838.53;;;-2.24;100.00
28665;BME280;15850;47.524;7.814;2023-01-19T03:24:47;96888.97;;;-1.94;100.00
28665;BME280;15850;47.524;7.814;2023-01-19T03:27:15;96875.88;;;-1.90;100.00
28665;BME280;15850;47.524;7.814;2023-01-19T03:29:46;96891.81;;;-1.80;100.00
28665;BME280;15850;47.524;7.814;2023-01-19T03:32:15;96883.13;;;-1.56;100.00
28665;BME280;15850;47.524;7.814;2023-01-19T03:34:43;96887.97;;;-1.58;100.00
28665;BME280;15850;47.524;7.814;2023-01-19T03:37:10;96887.72;;;-1.62;100.00
28665;BME280;15850;47.524;7.814;2023-01-19T03:39:36;96768.38;;;-2.59;100.00
28665;BME280;15850;47.524;7.814;2023-01-19T03:42:05;96884.13;;;-1.86;100.00
28665;BME280;15850;47.524;7.814;2023-01-19T03:44:33;96697.66;;;-3.35;100.00
28665;BME280;15850;47.524;7.814;2023-01-19T03:47:03;96888.75;;;-2.02;100.00
28665;BME280;15850;47.524;7.814;2023-01-19T03:49:29;96905.53;;;-1.97;100.00
28665;BME280;15850;47.524;7.814;2023-01-19T03:51:55;96791.84;;;-2.61;100.00
28665;BME280;15850;47.524;7.814;2023-01-19T03:54:22;96893.56;;;-2.04;100.00
28665;BME280;15850;47.524;7.814;2023-01-19T03:56:47;96703.22;;;-3.32;100.00
28665;BME280;15850;47.524;7.814;2023-01-19T03:59:13;96887.97;;;-2.03;100.00
28665;BME280;15850;47.524;7.814;2023-01-19T04:01:38;96812.34;;;-2.62;100.00
28665;BME280;15850;47.524;7.814;2023-01-19T04:04:05;96893.81;;;-2.01;100.00
28665;BME280;15850;47.524;7.814;2023-01-19T04:06:31;96895.66;;;-1.96;100.00
28665;BME280;15850;47.524;7.814;2023-01-19T04:08:56;96888.84;;;-2.18;100.00
28665;BME280;15850;47.524;7.814;2023-01-19T04:11:22;96904.78;;;-2.13;100.00
28665;BME280;15850;47.524;7.814;2023-01-19T04:13:47;96234.97;;;-6.48;100.00
28665;BME280;15850;47.524;7.814;2023-01-19T04:16:13;96905.69;;;-2.27;100.00
28665;BME280;15850;47.524;7.814;2023-01-19T04:18:39;96908.09;;;-2.31;100.00
28665;BME280;15850;47.524;7.814;2023-01-19T04:21:06;96911.00;;;-2.32;100.00
28665;BME280;15850;47.524;7.814;2023-01-19T04:23:33;96904.41;;;-2.40;100.00
28665;BME280;15850;47.524;7.814;2023-01-19T04:25:59;96900.94;;;-2.46;100.00
28665;BME280;15850;47.524;7.814;2023-01-19T04:28:26;96889.81;;;-2.63;100.00
28665;BME280;15850;47.524;7.814;2023-01-19T04:30:51;96883.16;;;-2.66;100.00
28665;BME280;15850;47.524;7.814;2023-01-19T04:33:17;96901.75;;;-2.45;100.00
28665;BME280;15850;47.524;7.814;2023-01-19T04:35:43;96901.22;;;-2.52;100.00
28665;BME280;15850;47.524;7.814;2023-01-19T04:38:10;96782.50;;;-3.39;100.00
28665;BME280;15850;47.524;7.814;2023-01-19T04:40:36;96908.47;;;-2.58;100.00
28665;BME280;15850;47.524;7.814;2023-01-19T04:43:01;96912.97;;;-2.48;100.00
28665;BME280;15850;47.524;7.814;2023-01-19T04:45:27;96907.94;;;-2.60;100.00
28665;BME280;15850;47.524;7.814;2023-01-19T04:47:52;96903.13;;;-2.68;100.00
28665;BME280;15850;47.524;7.814;2023-01-19T04:50:18;96575.19;;;-4.80;100.00
28665;BME280;15850;47.524;7.814;2023-01-19T04:52:44;96859.88;;;-3.25;100.00
28665;BME280;15850;47.524;7.814;2023-01-19T04:55:11;96700.47;;;-4.32;100.00
28665;BME280;15850;47.524;7.814;2023-01-19T04:57:37;96911.22;;;-2.94;100.00
28665;BME280;15850;47.524;7.814;2023-01-19T05:00:04;96919.47;;;-3.00;100.00
28665;BME280;15850;47.524;7.814;2023-01-19T05:02:29;96866.03;;;-3.24;100.00
28665;BME280;15850;47.524;7.814;2023-01-19T05:04:55;96916.47;;;-2.73;100.00
28665;BME280;15850;47.524;7.814;2023-01-19T05:07:21;96926.78;;;-2.46;100.00
28665;BME280;15850;47.524;7.814;2023-01-19T05:09:46;96358.88;;;-6.04;100.00
28665;BME280;15850;47.524;7.814;2023-01-19T05:12:13;96863.22;;;-2.73;100.00
28665;BME280;15850;47.524;7.814;2023-01-19T05:14:39;96916.63;;;-2.39;100.00
28665;BME280;15850;47.524;7.814;2023-01-19T05:17:04;96913.50;;;-2.56;100.00
28665;BME280;15850;47.524;7.814;2023-01-19T05:19:30;96924.97;;;-2.66;100.00
28665;BME280;15850;47.524;7.814;2023-01-19T05:21:56;96889.88;;;-2.89;100.00
28665;BME280;15850;47.524;7.814;2023-01-19T05:24:21;96924.38;;;-2.38;100.00
28665;BME280;15850;47.524;7.814;2023-01-19T05:26:47;96839.59;;;-2.95;100.00
28665;BME280;15850;47.524;7.814;2023-01-19T05:29:14;96933.69;;;-2.45;100.00
28665;BME280;15850;47.524;7.814;2023-01-19T05:31:39;96726.00;;;-4.00;100.00
28665;BME280;15850;47.524;7.814;2023-01-19T05:34:05;96932.41;;;-2.53;100.00
28665;BME280;15850;47.524;7.814;2023-01-19T05:36:30;96936.09;;;-2.49;100.00
28665;BME280;15850;47.524;7.814;2023-01-19T05:38:56;96932.16;;;-2.56;100.00
28665;BME280;15850;47.524;7.814;2023-01-19T05:41:21;96932.19;;;-2.62;100.00
28665;BME280;15850;47.524;7.814;2023-01-19T05:43:47;96346.84;;;-6.57;100.00
28665;BME280;15850;47.524;7.814;2023-01-19T05:46:14;96758.38;;;-3.98;100.00
28665;BME280;15850;47.524;7.814;2023-01-19T05:48:40;96932.44;;;-2.78;100.00
28665;BME280;15850;47.524;7.814;2023-01-19T05:51:05;96880.63;;;-3.22;100.00
28665;BME280;15850;47.524;7.814;2023-01-19T05:53:31;96944.94;;;-2.64;100.00
28665;BME280;15850;47.524;7.814;2023-01-19T05:56:00;96801.66;;;-3.42;100.00
28665;BME280;15850;47.524;7.814;2023-01-19T05:58:26;96940.69;;;-2.54;100.00
28665;BME280;15850;47.524;7.814;2023-01-19T06:00:51;96944.34;;;-2.45;100.00
28665;BME280;15850;47.524;7.814;2023-01-19T06:03:18;96957.16;;;-2.52;100.00
28665;BME280;15850;47.524;7.814;2023-01-19T06:05:43;96946.75;;;-2.44;100.00
28665;BME280;15850;47.524;7.814;2023-01-19T06:08:09;96954.69;;;-2.18;100.00
28665;BME280;15850;47.524;7.814;2023-01-19T06:10:35;96530.34;;;-4.87;100.00
28665;BME280;15850;47.524;7.814;2023-01-19T06:13:00;96941.59;;;-2.20;100.00
28665;BME280;15850;47.524;7.814;2023-01-19T06:15:26;96951.72;;;-2.11;100.00
28665;BME280;15850;47.524;7.814;2023-01-19T06:17:51;96974.00;;;-1.92;100.00
28665;BME280;15850;47.524;7.814;2023-01-19T06:20:18;96980.34;;;-1.83;100.00
28665;BME280;15850;47.524;7.814;2023-01-19T06:22:44;96985.16;;;-1.80;100.00
28665;BME280;15850;47.524;7.814;2023-01-19T06:25:09;96895.81;;;-2.27;100.00
28665;BME280;15850;47.524;7.814;2023-01-19T06:27:35;96976.06;;;-1.74;100.00
28665;BME280;15850;47.524;7.814;2023-01-19T06:30:00;96977.88;;;-1.69;100.00
28665;BME280;15850;47.524;7.814;2023-01-19T06:32:26;96428.25;;;-5.20;100.00
28665;BME280;15850;47.524;7.814;2023-01-19T06:34:51;96565.09;;;-4.42;100.00
28665;BME280;15850;47.524;7.814;2023-01-19T06:37:18;96982.03;;;-1.97;100.00
28665;BME280;15850;47.524;7.814;2023-01-19T06:39:44;96731.25;;;-3.60;100.00
28665;BME280;15850;47.524;7.814;2023-01-19T06:42:10;96982.03;;;-1.97;100.00
28665;BME280;15850;47.524;7.814;2023-01-19T06:44:36;96640.47;;;-4.23;100.00
28665;BME280;15850;47.524;7.814;2023-01-19T06:47:01;96988.41;;;-1.88;100.00
28665;BME280;15850;47.524;7.814;2023-01-19T06:49:27;96605.41;;;-4.35;100.00
28665;BME280;15850;47.524;7.814;2023-01-19T06:51:52;96996.47;;;-2.08;100.00
28665;BME280;15850;47.524;7.814;2023-01-19T06:54:19;96991.44;;;-2.15;100.00
28665;BME280;15850;47.524;7.814;2023-01-19T06:56:45;96997.28;;;-2.08;100.00
28665;BME280;15850;47.524;7.814;2023-01-19T06:59:10;97001.84;;;-2.29;100.00
28665;BME280;15850;47.524;7.814;2023-01-19T07:01:36;96930.09;;;-3.05;100.00
28665;BME280;15850;47.524;7.814;2023-01-19T07:04:01;97005.13;;;-2.57;100.00
28665;BME280;15850;47.524;7.814;2023-01-19T07:06:27;97003.50;;;-2.43;100.00
28665;BME280;15850;47.524;7.814;2023-01-19T07:08:53;96544.41;;;-5.22;100.00
28665;BME280;15850;47.524;7.814;2023-01-19T07:11:19;97008.84;;;-2.48;100.00
28665;BME280;15850;47.524;7.814;2023-01-19T07:13:45;97004.06;;;-2.62;100.00
28665;BME280;15850;47.524;7.814;2023-01-19T07:16:11;96816.03;;;-3.99;100.00
28665;BME280;15850;47.524;7.814;2023-01-19T07:18:37;97011.25;;;-2.83;100.00
28665;BME280;15850;47.524;7.814;2023-01-19T07:21:04;96953.53;;;-3.13;100.00
28665;BME280;15850;47.524;7.814;2023-01-19T07:23:29;97015.78;;;-2.83;100.00
28665;BME280;15850;47.524;7.814;2023-01-19T07:25:55;96860.41;;;-3.94;100.00
28665;BME280;15850;47.524;7.814;2023-01-19T07:28:22;97011.81;;;-3.06;100.00
28665;BME280;15850;47.524;7.814;2023-01-19T07:30:50;97006.47;;;-3.37;100.00
28665;BME280;15850;47.524;7.814;2023-01-19T07:33:15;97021.88;;;-3.28;100.00
28665;BME280;15850;47.524;7.814;2023-01-19T07:35:45;97006.69;;;-3.48;100.00
28665;BME280;15850;47.524;7.814;2023-01-19T07:38:10;97011.00;;;-3.27;100.00
28665;BME280;15850;47.524;7.814;2023-01-19T07:40:36;97044.50;;;-3.31;100.00
28665;BME280;15850;47.524;7.814;2023-01-19T07:43:01;97024.84;;;-3.10;100.00
28665;BME280;15850;47.524;7.814;2023-01-19T07:45:28;96955.91;;;-3.57;100.00
28665;BME280;15850;47.524;7.814;2023-01-19T07:47:54;97008.59;;;-3.18;100.00
28665;BME280;15850;47.524;7.814;2023-01-19T07:50:19;96977.97;;;-3.41;100.00
28665;BME280;15850;47.524;7.814;2023-01-19T07:52:45;96989.97;;;-3.44;100.00
28665;BME280;15850;47.524;7.814;2023-01-19T07:55:10;96845.97;;;-4.44;100.00
28665;BME280;15850;47.524;7.814;2023-01-19T07:57:36;96839.63;;;-4.43;100.00
28665;BME280;15850;47.524;7.814;2023-01-19T08:00:02;96855.31;;;-4.21;100.00
28665;BME280;15850;47.524;7.814;2023-01-19T08:02:39;97004.06;;;-3.43;100.00
28665;BME280;15850;47.524;7.814;2023-01-19T08:05:05;97044.53;;;-3.05;100.00
28665;BME280;15850;47.524;7.814;2023-01-19T08:07:32;97051.47;;;-2.84;100.00
28665;BME280;15850;47.524;7.814;2023-01-19T08:09:57;97050.41;;;-2.73;100.00
28665;BME280;15850;47.524;7.814;2023-01-19T08:12:23;97010.19;;;-2.92;100.00
28665;BME280;15850;47.524;7.814;2023-01-19T08:14:48;97058.41;;;-2.57;100.00
28665;BME280;15850;47.524;7.814;2023-01-19T08:17:14;97056.78;;;-2.69;100.00
28665;BME280;15850;47.524;7.814;2023-01-19T08:19:42;97062.66;;;-2.77;100.00
28665;BME280;15850;47.524;7.814;2023-01-19T08:22:08;97063.44;;;-2.76;100.00
28665;BME280;15850;47.524;7.814;2023-01-19T08:24:33;96688.63;;;-5.28;100.00
28665;BME280;15850;47.524;7.814;2023-01-19T08:27:00;96988.66;;;-3.26;100.00
28665;BME280;15850;47.524;7.814;2023-01-19T08:29:26;97069.56;;;-2.76;100.00
28665;BME280;15850;47.524;7.814;2023-01-19T08:31:51;96971.09;;;-3.37;100.00
28665;BME280;15850;47.524;7.814;2023-01-19T08:34:17;97101.53;;;-2.71;100.00
28665;BME280;15850;47.524;7.814;2023-01-19T08:36:44;96923.19;;;-3.52;100.00
28665;BME280;15850;47.524;7.814;2023-01-19T08:39:09;96942.88;;;-3.53;100.00
28665;BME280;15850;47.524;7.814;2023-01-19T08:41:35;96924.22;;;-3.84;100.00
28665;BME280;15850;47.524;7.814;2023-01-19T08:44:01;97067.72;;;-2.70;100.00
28665;BME280;15850;47.524;7.814;2023-01-19T08:46:27;96807.72;;;-4.49;100.00
28665;BME280;15850;47.524;7.814;2023-01-19T08:48:52;96915.75;;;-3.45;100.00
28665;BME280;15850;47.524;7.814;2023-01-19T08:51:18;96680.78;;;-4.87;100.00
28665;BME280;15850;47.524;7.814;2023-01-19T08:53:45;96935.69;;;-3.22;100.00
28665;BME280;15850;47.524;7.814;2023-01-19T08:56:10;96597.41;;;-5.37;100.00
28665;BME280;15850;47.524;7.814;2023-01-19T08:58:36;96680.81;;;-4.62;100.00
28665;BME280;15850;47.524;7.814;2023-01-19T09:01:02;97072.16;;;-2.04;100.00
28665;BME280;15850;47.524;7.814;2023-01-19T09:03:27;96619.50;;;-4.96;100.00
28665;BME280;15850;47.524;7.814;2023-01-19T09:05:53;97068.97;;;-2.01;100.00
28665;BME280;15850;47.524;7.814;2023-01-19T09:08:18;97054.56;;;-2.05;100.00
28665;BME280;15850;47.524;7.814;2023-01-19T09:10:46;97067.81;;;-1.80;100.00
28665;BME280;15850;47.524;7.814;2023-01-19T09:13:13;96939.63;;;-2.69;100.00
28665;BME280;15850;47.524;7.814;2023-01-19T09:15:40;97058.78;;;-1.89;100.00
28665;BME280;15850;47.524;7.814;2023-01-19T09:18:07;97074.63;;;-1.53;100.00
28665;BME280;15850;47.524;7.814;2023-01-19T09:20:33;97018.78;;;-1.89;100.00
28665;BME280;15850;47.524;7.814;2023-01-19T09:22:59;97055.16;;;-1.54;100.00
28665;BME280;15850;47.524;7.814;2023-01-19T09:25:25;97078.03;;;-1.37;100.00
28665;BME280;15850;47.524;7.814;2023-01-19T09:27:52;97071.38;;;-1.40;100.00
28665;BME280;15850;47.524;7.814;2023-01-19T09:30:18;96700.16;;;-3.74;100.00
28665;BME280;15850;47.524;7.814;2023-01-19T09:32:43;96970.78;;;-1.89;100.00
28665;BME280;15850;47.524;7.814;2023-01-19T09:35:09;97024.50;;;-1.56;100.00
28665;BME280;15850;47.524;7.814;2023-01-19T09:37:35;97082.44;;;-1.12;100.00
28665;BME280;15850;47.524;7.814;2023-01-19T09:40:01;97077.59;;;-1.05;100.00
28665;BME280;15850;47.524;7.814;2023-01-19T09:42:32;97100.53;;;-1.04;100.00
28665;BME280;15850;47.524;7.814;2023-01-19T09:45:04;97071.63;;;-0.92;100.00
28665;BME280;15850;47.524;7.814;2023-01-19T09:47:34;97075.34;;;-0.88;100.00
28665;BME280;15850;47.524;7.814;2023-01-19T09:50:04;97074.47;;;-0.78;100.00
28665;BME280;15850;47.524;7.814;2023-01-19T09:52:36;96917.44;;;-1.84;100.00
28665;BME280;15850;47.524;7.814;2023-01-19T09:55:18;96838.75;;;-2.21;100.00
28665;BME280;15850;47.524;7.814;2023-01-19T09:57:44;96939.88;;;-1.46;100.00
28665;BME280;15850;47.524;7.814;2023-01-19T10:00:15;96478.44;;;-4.18;100.00
28665;BME280;15850;47.524;7.814;2023-01-19T10:02:43;96604.03;;;-3.32;100.00
28665;BME280;15850;47.524;7.814;2023-01-19T10:05:22;97063.19;;;-0.36;100.00
28665;BME280;15850;47.524;7.814;2023-01-19T10:07:57;96886.25;;;-1.83;100.00
28665;BME280;15850;47.524;7.814;2023-01-19T10:10:27;97069.22;;;-0.93;100.00
28665;BME280;15850;47.524;7.814;2023-01-19T10:13:00;97035.03;;;-1.26;100.00
28665;BME280;15850;47.524;7.814;2023-01-19T10:15:36;97062.84;;;-0.98;100.00
28665;BME280;15850;47.524;7.814;2023-01-19T10:18:12;97063.31;;;-0.85;100.00
28665;BME280;15850;47.524;7.814;2023-01-19T10:20:42;97054.22;;;-0.84;100.00
28665;BME280;15850;47.524;7.814;2023-01-19T10:23:24;97053.81;;;-0.67;100.00
28665;BME280;15850;47.524;7.814;2023-01-19T10:25:53;97031.88;;;-0.64;100.00
28665;BME280;15850;47.524;7.814;2023-01-19T10:28:23;97050.06;;;-0.37;100.00
28665;BME280;15850;47.524;7.814;2023-01-19T10:30:53;96741.13;;;-2.41;100.00
28665;BME280;15850;47.524;7.814;2023-01-19T10:33:19;97052.19;;;-0.05;100.00
28665;BME280;15850;47.524;7.814;2023-01-19T10:35:44;97042.38;;;0.09;100.00
28665;BME280;15850;47.524;7.814;2023-01-19T10:38:12;97044.25;;;0.09;100.00
28665;BME280;15850;47.524;7.814;2023-01-19T10:40:43;97047.00;;;0.28;100.00
28665;BME280;15850;47.524;7.814;2023-01-19T10:43:36;97040.44;;;0.39;100.00
28665;BME280;15850;47.524;7.814;2023-01-19T10:46:06;96962.41;;;-0.11;100.00
28665;BME280;15850;47.524;7.814;2023-01-19T10:48:37;96963.88;;;0.00;100.00
28665;BME280;15850;47.524;7.814;2023-01-19T10:51:04;97039.84;;;0.42;100.00
28665;BME280;15850;47.524;7.814;2023-01-19T10:53:30;97041.38;;;0.48;100.00
28665;BME280;15850;47.524;7.814;2023-01-19T10:56:12;97037.84;;;0.53;100.00
28665;BME280;15850;47.524;7.814;2023-01-19T10:58:38;97037.94;;;0.66;100.00
28665;BME280;15850;47.524;7.814;2023-01-19T11:01:14;97034.75;;;0.64;100.00
28665;BME280;15850;47.524;7.814;2023-01-19T11:03:40;96927.50;;;-0.01;100.00
28665;BME280;15850;47.524;7.814;2023-01-19T11:06:19;97039.97;;;0.75;100.00
28665;BME280;15850;47.524;7.814;2023-01-19T11:08:47;97033.63;;;0.89;99.38
28665;BME280;15850;47.524;7.814;2023-01-19T11:11:13;97024.75;;;0.89;98.42
28665;BME280;15850;47.524;7.814;2023-01-19T11:13:39;96934.53;;;0.33;95.82
28665;BME280;15850;47.524;7.814;2023-01-19T11:16:07;97039.41;;;0.97;94.09
28665;BME280;15850;47.524;7.814;2023-01-19T11:18:42;97007.19;;;0.64;92.21
28665;BME280;15850;47.524;7.814;2023-01-19T11:21:10;97014.28;;;0.74;93.08
28665;BME280;15850;47.524;7.814;2023-01-19T11:23:39;97029.09;;;1.04;92.81
28665;BME280;15850;47.524;7.814;2023-01-19T11:26:05;97024.75;;;0.89;88.70
28665;BME280;15850;47.524;7.814;2023-01-19T11:28:33;97027.81;;;0.63;90.74
28665;BME280;15850;47.524;7.814;2023-01-19T11:31:01;97027.28;;;0.61;94.22
28665;BME280;15850;47.524;7.814;2023-01-19T11:33:32;97026.44;;;0.85;89.63
28665;BME280;15850;47.524;7.814;2023-01-19T11:36:05;96984.03;;;0.73;86.56
28665;BME280;15850;47.524;7.814;2023-01-19T11:38:31;97022.50;;;1.15;85.92
28665;BME280;15850;47.524;7.814;2023-01-19T11:41:04;96950.13;;;1.01;81.15
28665;BME280;15850;47.524;7.814;2023-01-19T11:43:29;97013.50;;;1.71;80.55
28665;BME280;15850;47.524;7.814;2023-01-19T11:45:55;96884.72;;;1.02;77.63
28665;BME280;15850;47.524;7.814;2023-01-19T11:48:26;97017.03;;;2.27;75.04
28665;BME280;15850;47.524;7.814;2023-01-19T11:50:53;97018.91;;;2.40;78.52
28665;BME280;15850;47.524;7.814;2023-01-19T11:53:24;97011.34;;;2.01;75.06
28665;BME280;15850;47.524;7.814;2023-01-19T11:55:54;96892.94;;;0.92;79.84
28665;BME280;15850;47.524;7.814;2023-01-19T11:58:22;97006.88;;;1.96;80.53
28665;BME280;15850;47.524;7.814;2023-01-19T12:00:50;96946.13;;;1.45;81.33
28665;BME280;15850;47.524;7.814;2023-01-19T12:03:21;97005.91;;;1.92;82.92
28665;BME280;15850;47.524;7.814;2023-01-19T12:05:51;97004.28;;;1.77;84.00
28665;BME280;15850;47.524;7.814;2023-01-19T12:08:19;96701.56;;;-0.04;83.44
28665;BME280;15850;47.524;7.814;2023-01-19T12:10:49;96747.69;;;0.07;82.58
28665;BME280;15850;47.524;7.814;2023-01-19T12:13:20;96974.66;;;1.69;82.02
28665;BME280;15850;47.524;7.814;2023-01-19T12:15:47;96626.06;;;-0.80;82.38
28665;BME280;15850;47.524;7.814;2023-01-19T12:18:18;97030.84;;;1.93;83.23
28665;BME280;15850;47.524;7.814;2023-01-19T12:20:47;96880.56;;;2.20;100.00
28665;BME280;15850;47.524;7.814;2023-01-19T12:23:23;96994.53;;;3.09;76.48
28665;BME280;15850;47.524;7.814;2023-01-19T12:26:04;96840.81;;;2.08;73.40
28665;BME280;15850;47.524;7.814;2023-01-19T12:28:35;96965.25;;;2.63;70.74
28665;BME280;15850;47.524;7.814;2023-01-19T12:31:02;97014.59;;;3.48;71.53
28665;BME280;15850;47.524;7.814;2023-01-19T12:33:32;96611.56;;;1.25;70.32
28665;BME280;15850;47.524;7.814;2023-01-19T12:35:59;96569.34;;;0.72;73.07
28665;BME280;15850;47.524;7.814;2023-01-19T12:38:39;96988.75;;;3.69;71.22
28665;BME280;15850;47.524;7.814;2023-01-19T12:41:25;96944.88;;;3.29;70.40
28665;BME280;15850;47.524;7.814;2023-01-19T12:44:20;96993.81;;;3.71;72.49
28665;BME280;15850;47.524;7.814;2023-01-19T12:46:49;97007.75;;;3.19;72.38
28665;BME280;15850;47.524;7.814;2023-01-19T12:49:25;96778.88;;;1.96;73.24
28665;BME280;15850;47.524;7.814;2023-01-19T12:51:52;96999.94;;;3.32;73.10
28665;BME280;15850;47.524;7.814;2023-01-19T12:54:25;96589.03;;;0.53;70.78
28665;BME280;15850;47.524;7.814;2023-01-19T12:56:59;96798.44;;;1.97;69.76